Time;durP1;ratioP1;P1;durP2;ratioP2;P2;SDS_P1;SDS_P2;PMS_P1;PMS_P2;Temp;Humidity;BMP_temperature;BMP_pressure;BME280_temperature;BME280_humidity;BME280_pressure;Samples;Min_cycle;Max_cycle;Signal;HPM_P1;HPM_P2
2022/07/20 00:02:34;;;;;;;;;;;;;;;18.22;54.85;96186.91;6149226;28;19922;-66
2022/07/20 00:05:42;;;;;;;;;;;;;;;18.17;54.62;96175.91;6149174;29;20432;-66
2022/07/20 00:12:05;;;;;;;;;;;;;;;18.23;54.60;96183.25;6149067;29;19926;-66
2022/07/20 00:15:11;;;;;;;;;;;;;;;18.33;54.14;96181.25;6149162;28;19926;-66
2022/07/20 00:18:15;;;;;;;;;;;;;;;18.33;54.46;96178.59;6149062;28;19933;-66
2022/07/20 00:21:22;;;;;;;;;;;;;;;18.36;54.00;96182.75;6149133;29;19926;-66
2022/07/20 00:24:25;;;;;;;;;;;;;;;18.47;54.12;96162.97;6149555;28;19927;-65
2022/07/20 00:27:29;;;;;;;;;;;;;;;18.48;54.08;96160.13;6149038;29;20312;-65
2022/07/20 00:30:30;;;;;;;;;;;;;;;18.49;53.96;96150.31;6149049;28;19949;-65
2022/07/20 00:33:33;;;;;;;;;;;;;;;18.57;54.04;96150.28;6148946;28;20036;-65
2022/07/20 00:36:34;;;;;;;;;;;;;;;18.52;53.62;96160.66;6148818;29;19926;-66
2022/07/20 00:39:36;;;;;;;;;;;;;;;18.44;54.16;96168.63;6148621;29;20299;-66
2022/07/20 00:42:37;;;;;;;;;;;;;;;18.33;54.49;96165.28;6149034;29;20412;-65
2022/07/20 00:45:39;;;;;;;;;;;;;;;18.31;54.39;96166.44;6147358;29;19927;-66
2022/07/20 00:48:40;;;;;;;;;;;;;;;18.21;54.51;96174.59;6148719;29;19926;-66
2022/07/20 00:51:43;;;;;;;;;;;;;;;18.20;54.92;96180.91;6148974;28;19927;-66
2022/07/20 00:54:48;;;;;;;;;;;;;;;18.24;54.68;96184.91;6149208;28;20323;-66
2022/07/20 00:57:52;;;;;;;;;;;;;;;18.34;54.61;96174.94;6147712;28;19933;-65
2022/07/20 01:00:53;;;;;;;;;;;;;;;18.44;54.22;96174.78;6148613;29;20411;-65
2022/07/20 01:03:54;;;;;;;;;;;;;;;18.52;53.90;96180.13;6148921;28;20308;-65
2022/07/20 01:06:58;;;;;;;;;;;;;;;18.59;54.14;96180.28;6148520;28;19926;-64
2022/07/20 01:10:02;;;;;;;;;;;;;;;18.70;54.15;96179.94;6148465;28;19926;-65
2022/07/20 01:13:06;;;;;;;;;;;;;;;18.70;54.05;96195.09;6148496;28;19926;-66
2022/07/20 01:16:08;;;;;;;;;;;;;;;18.77;54.05;96191.66;6148102;28;20316;-66
2022/07/20 01:19:12;;;;;;;;;;;;;;;18.83;53.68;96180.31;6149556;28;19926;-66
2022/07/20 01:22:16;;;;;;;;;;;;;;;18.91;53.56;96182.16;6152752;28;19926;-66
2022/07/20 01:25:21;;;;;;;;;;;;;;;19.03;53.71;96195.97;6152722;28;19922;-66
2022/07/20 01:28:26;;;;;;;;;;;;;;;19.15;53.49;96207.94;6151332;29;19927;-65
2022/07/20 01:31:30;;;;;;;;;;;;;;;19.23;53.24;96212.44;6152445;28;19927;-65
2022/07/20 01:34:32;;;;;;;;;;;;;;;19.36;53.26;96217.22;6152048;28;19934;-65
2022/07/20 01:37:35;;;;;;;;;;;;;;;19.44;52.91;96230.56;6152288;28;20318;-65
2022/07/20 01:40:36;;;;;;;;;;;;;;;19.53;52.80;96229.53;6152230;28;19933;-65
2022/07/20 01:43:39;;;;;;;;;;;;;;;19.63;52.73;96230.16;6152213;29;19927;-65
2022/07/20 01:46:41;;;;;;;;;;;;;;;19.73;52.85;96222.84;6151549;28;20069;-65
2022/07/20 01:49:42;;;;;;;;;;;;;;;19.87;52.38;96220.44;6151965;29;19933;-65
2022/07/20 01:52:45;;;;;;;;;;;;;;;19.91;52.20;96232.44;6151672;28;19938;-65
2022/07/20 01:55:46;;;;;;;;;;;;;;;19.91;52.38;96237.78;6151436;29;20357;-65
2022/07/20 01:58:47;;;;;;;;;;;;;;;19.89;52.41;96229.09;6151646;29;19927;-65
2022/07/20 02:01:48;;;;;;;;;;;;;;;19.89;52.54;96234.44;6151536;28;20308;-65
2022/07/20 02:04:51;;;;;;;;;;;;;;;19.96;52.02;96222.91;6151686;28;19966;-65
2022/07/20 02:07:53;;;;;;;;;;;;;;;20.09;51.92;96227.66;6151557;28;19927;-65
2022/07/20 02:10:56;;;;;;;;;;;;;;;20.22;51.77;96234.31;6151206;28;19927;-65
2022/07/20 02:14:00;;;;;;;;;;;;;;;20.24;51.74;96242.97;6151252;29;19930;-65
2022/07/20 02:17:01;;;;;;;;;;;;;;;20.31;51.64;96241.25;6150985;28;19934;-65
2022/07/20 02:20:05;;;;;;;;;;;;;;;20.42;51.25;96247.03;6151466;29;19926;-66
2022/07/20 02:23:07;;;;;;;;;;;;;;;20.55;51.14;96257.19;6151143;29;20440;-66
2022/07/20 02:26:12;;;;;;;;;;;;;;;20.61;50.82;96240.44;6151431;28;19930;-65
2022/07/20 02:29:13;;;;;;;;;;;;;;;20.56;51.26;96237.47;6151028;29;19942;-65
2022/07/20 02:32:14;;;;;;;;;;;;;;;20.29;51.79;96236.09;6149454;28;19961;-65
2022/07/20 02:35:15;;;;;;;;;;;;;;;19.91;52.45;96237.78;6150580;28;19941;-66
2022/07/20 02:38:20;;;;;;;;;;;;;;;19.65;52.90;96236.22;6151008;28;19930;-66
2022/07/20 02:41:24;;;;;;;;;;;;;;;19.50;53.20;96240.53;6150663;29;20349;-66
2022/07/20 02:44:30;;;;;;;;;;;;;;;19.40;53.56;96237.25;6150512;28;19981;-65
2022/07/20 02:47:46;;;;;;;;;;;;;;;19.38;53.70;96241.91;6150428;28;19926;-66
2022/07/20 02:50:48;;;;;;;;;;;;;;;19.42;53.38;96233.41;6150272;28;19926;-65
2022/07/20 02:53:49;;;;;;;;;;;;;;;19.48;53.34;96229.22;6150486;28;20412;-65
2022/07/20 02:56:52;;;;;;;;;;;;;;;19.61;53.47;96232.16;6150607;28;20396;-65
2022/07/20 02:59:55;;;;;;;;;;;;;;;19.66;53.12;96229.84;6150334;28;19933;-66
2022/07/20 03:02:57;;;;;;;;;;;;;;;19.85;52.72;96243.81;6150252;28;19926;-65
2022/07/20 03:06:00;;;;;;;;;;;;;;;19.85;52.13;96227.81;6149968;28;20007;-66
2022/07/20 03:09:06;;;;;;;;;;;;;;;19.72;51.74;96229.16;6149725;28;19930;-65
2022/07/20 03:12:08;;;;;;;;;;;;;;;19.59;51.67;96215.50;6149995;29;19934;-66
2022/07/20 03:15:09;;;;;;;;;;;;;;;19.54;51.52;96236.53;6149873;29;20352;-66
2022/07/20 03:18:10;;;;;;;;;;;;;;;19.69;50.85;96231.34;6149438;28;19931;-65
2022/07/20 03:21:13;;;;;;;;;;;;;;;19.89;50.25;96223.75;6149897;28;19927;-65
2022/07/20 03:24:15;;;;;;;;;;;;;;;19.97;50.17;96226.41;6149621;28;20297;-66
2022/07/20 03:27:22;;;;;;;;;;;;;;;20.25;50.12;96250.81;6149887;28;19927;-66
2022/07/20 03:30:25;;;;;;;;;;;;;;;20.56;49.55;96239.31;6164482;28;19927;-65
2022/07/20 03:33:28;;;;;;;;;;;;;;;20.61;49.30;96234.28;6149093;28;19927;-66
2022/07/20 03:36:29;;;;;;;;;;;;;;;20.67;48.93;96238.06;6149071;28;20073;-66
2022/07/20 03:39:33;;;;;;;;;;;;;;;20.57;48.86;96239.13;6149659;28;19930;-66
2022/07/20 03:42:37;;;;;;;;;;;;;;;20.66;48.78;96249.75;6149270;28;19926;-65
2022/07/20 03:45:40;;;;;;;;;;;;;;;20.57;48.51;96241.78;6148716;28;19926;-66
2022/07/20 03:48:46;;;;;;;;;;;;;;;20.59;48.59;96247.78;6149316;28;19926;-66
2022/07/20 03:51:47;;;;;;;;;;;;;;;20.68;48.59;96250.41;6148937;28;19926;-66
2022/07/20 03:54:48;;;;;;;;;;;;;;;20.85;47.57;96235.91;6149175;29;19926;-65
2022/07/20 03:57:52;;;;;;;;;;;;;;;20.74;47.64;96244.34;6149430;28;19998;-66
2022/07/20 04:00:55;;;;;;;;;;;;;;;20.55;47.97;96249.19;6149300;28;20316;-66
2022/07/20 04:03:59;;;;;;;;;;;;;;;20.31;48.81;96246.59;6149344;28;20404;-66
2022/07/20 04:07:03;;;;;;;;;;;;;;;20.23;48.92;96247.47;6149096;28;19926;-65
2022/07/20 04:10:06;;;;;;;;;;;;;;;20.28;48.84;96241.63;6148881;28;19927;-65
2022/07/20 04:13:10;;;;;;;;;;;;;;;20.50;46.99;96243.50;6149018;28;20261;-65
2022/07/20 04:16:13;;;;;;;;;;;;;;;20.51;46.84;96242.47;6148936;28;19922;-65
2022/07/20 04:19:14;;;;;;;;;;;;;;;20.48;46.97;96239.31;6149191;28;19926;-66
2022/07/20 04:22:18;;;;;;;;;;;;;;;20.38;47.19;96236.88;6149217;28;19945;-65
2022/07/20 04:25:19;;;;;;;;;;;;;;;20.29;47.28;96241.41;6147554;29;20000;-66
2022/07/20 04:28:20;;;;;;;;;;;;;;;20.44;46.82;96233.50;6149288;28;19933;-65
2022/07/20 04:31:24;;;;;;;;;;;;;;;20.42;47.00;96235.53;6148983;28;20427;-65
2022/07/20 04:34:27;;;;;;;;;;;;;;;20.49;46.53;96241.81;6148554;28;19934;-65
2022/07/20 04:37:30;;;;;;;;;;;;;;;20.54;46.43;96233.31;6148823;28;19971;-66
2022/07/20 04:40:31;;;;;;;;;;;;;;;20.71;46.20;96228.69;6149140;28;19926;-66
2022/07/20 04:43:37;;;;;;;;;;;;;;;20.87;45.82;96239.25;6148645;29;19926;-66
2022/07/20 04:46:38;;;;;;;;;;;;;;;22.34;42.88;96239.59;6148431;28;20397;-65
2022/07/20 04:49:39;;;;;;;;;;;;;;;24.84;37.77;96218.38;6148630;28;19970;-65
2022/07/20 04:52:43;;;;;;;;;;;;;;;26.94;34.79;96234.47;6148561;28;19930;-65
2022/07/20 04:55:46;;;;;;;;;;;;;;;29.54;31.48;96244.84;6152060;28;19933;-66
2022/07/20 04:58:52;;;;;;;;;;;;;;;31.97;28.09;96255.59;6153057;28;20032;-66
2022/07/20 05:01:56;;;;;;;;;;;;;;;34.12;25.74;96257.84;6153239;28;19926;-66
2022/07/20 05:04:57;;;;;;;;;;;;;;;32.77;26.56;96256.06;6153017;28;19926;-65
2022/07/20 05:07:58;;;;;;;;;;;;;;;32.15;26.41;96247.13;6152562;28;20305;-65
2022/07/20 05:10:59;;;;;;;;;;;;;;;35.07;24.31;96252.25;6152835;28;19926;-65
2022/07/20 05:14:00;;;;;;;;;;;;;;;36.52;22.54;96255.44;6152739;28;19926;-65
2022/07/20 05:17:04;;;;;;;;;;;;;;;34.99;24.20;96256.31;6152653;28;19933;-66
2022/07/20 05:20:05;;;;;;;;;;;;;;;32.19;26.16;96242.84;6152365;28;19932;-65
2022/07/20 05:23:09;;;;;;;;;;;;;;;30.53;28.31;96238.63;6152549;28;19927;-66
2022/07/20 05:26:12;;;;;;;;;;;;;;;32.18;25.86;96246.59;6152341;28;19926;-65
2022/07/20 05:29:16;;;;;;;;;;;;;;;32.82;25.67;96245.25;6152326;28;19926;-66
2022/07/20 05:32:18;;;;;;;;;;;;;;;35.41;22.98;96254.47;6152000;28;20352;-65
2022/07/20 05:35:22;;;;;;;;;;;;;;;38.26;19.59;96265.25;6152475;28;19933;-65
2022/07/20 05:38:25;;;;;;;;;;;;;;;38.24;18.73;96261.16;6152375;28;19927;-66
2022/07/20 05:41:29;;;;;;;;;;;;;;;39.95;18.88;96265.69;6152147;28;19974;-66
2022/07/20 05:44:33;;;;;;;;;;;;;;;41.53;16.83;96269.13;6151827;28;19933;-65
2022/07/20 05:47:36;;;;;;;;;;;;;;;39.78;18.28;96270.97;6152121;28;20352;-65
2022/07/20 05:50:38;;;;;;;;;;;;;;;41.19;17.87;96270.44;6151922;28;19926;-65
2022/07/20 05:53:42;;;;;;;;;;;;;;;43.33;15.02;96279.72;6151859;28;19926;-64
2022/07/20 05:56:43;;;;;;;;;;;;;;;44.73;14.60;96281.06;6151470;28;19926;-66
2022/07/20 05:59:44;;;;;;;;;;;;;;;46.57;13.04;96276.44;6151792;28;19926;-66
2022/07/20 06:02:50;;;;;;;;;;;;;;;48.04;12.97;96278.94;6151639;28;19927;-66
2022/07/20 06:05:55;;;;;;;;;;;;;;;45.41;14.62;96273.50;6151116;28;19926;-65
2022/07/20 06:08:56;;;;;;;;;;;;;;;42.19;16.39;96258.34;6151445;28;19927;-65
2022/07/20 06:12:02;;;;;;;;;;;;;;;41.03;17.16;96243.16;6151333;28;19930;-65
2022/07/20 06:15:03;;;;;;;;;;;;;;;41.60;16.47;96245.47;6151384;28;19926;-65
2022/07/20 06:18:05;;;;;;;;;;;;;;;39.19;17.21;96243.75;6151099;28;19926;-65
2022/07/20 06:21:06;;;;;;;;;;;;;;;38.87;17.37;96232.66;6151302;29;19926;-65
2022/07/20 06:24:08;;;;;;;;;;;;;;;38.29;17.42;96242.66;6151182;28;19981;-66
2022/07/20 06:27:09;;;;;;;;;;;;;;;37.15;18.21;96234.88;6151024;28;20409;-66
2022/07/20 06:30:13;;;;;;;;;;;;;;;38.88;16.67;96232.38;6150983;28;20420;-67
2022/07/20 06:33:17;;;;;;;;;;;;;;;40.85;15.31;96233.06;6150983;28;19926;-64
2022/07/20 06:36:23;;;;;;;;;;;;;;;41.76;14.75;96228.47;6150801;28;19926;-65
2022/07/20 06:39:24;;;;;;;;;;;;;;;39.02;16.48;96216.75;6150819;28;19993;-66
2022/07/20 06:42:28;;;;;;;;;;;;;;;36.02;18.85;96213.41;6150591;28;19926;-65
2022/07/20 06:45:29;;;;;;;;;;;;;;;36.23;19.13;96203.22;6149964;28;19930;-65
2022/07/20 06:48:34;;;;;;;;;;;;;;;38.62;17.46;96207.13;6150480;28;19934;-66
2022/07/20 06:51:35;;;;;;;;;;;;;;;42.29;14.36;96216.59;6149825;28;20317;-65
2022/07/20 06:54:39;;;;;;;;;;;;;;;44.41;13.06;96219.56;6149895;28;20049;-67
2022/07/20 06:57:44;;;;;;;;;;;;;;;40.28;15.12;96207.78;6149963;28;19930;-67
2022/07/20 07:00:45;;;;;;;;;;;;;;;39.93;15.69;96215.59;6150046;28;19927;-66
2022/07/20 07:03:49;;;;;;;;;;;;;;;42.13;13.91;96205.16;6149624;28;19927;-65
2022/07/20 07:06:55;;;;;;;;;;;;;;;43.35;13.46;96217.34;6149841;28;19933;-66
2022/07/20 07:09:58;;;;;;;;;;;;;;;42.94;13.44;96195.63;6149918;28;19958;-66
2022/07/20 07:13:03;;;;;;;;;;;;;;;42.15;13.50;96198.19;6149462;28;20339;-66
2022/07/20 07:16:06;;;;;;;;;;;;;;;42.78;13.69;96203.59;6149408;28;19926;-66
2022/07/20 07:19:10;;;;;;;;;;;;;;;43.91;12.25;96212.69;6149616;28;19922;-66
2022/07/20 07:22:14;;;;;;;;;;;;;;;44.77;11.83;96204.38;6149537;28;19930;-65
2022/07/20 07:25:18;;;;;;;;;;;;;;;45.41;11.53;96208.78;6149475;28;19922;-65
2022/07/20 07:28:20;;;;;;;;;;;;;;;46.52;10.62;96210.72;6149545;29;19927;-66
2022/07/20 07:31:22;;;;;;;;;;;;;;;47.90;9.74;96211.63;6149001;28;19933;-66
2022/07/20 07:34:23;;;;;;;;;;;;;;;47.63;9.58;96208.50;6149692;28;19926;-65
2022/07/20 07:37:27;;;;;;;;;;;;;;;47.33;9.93;96198.84;6149448;28;19926;-65
2022/07/20 07:40:29;;;;;;;;;;;;;;;47.18;9.64;96208.78;6149691;28;20029;-65
2022/07/20 07:43:30;;;;;;;;;;;;;;;47.63;9.54;96205.72;6149396;28;19931;-65
2022/07/20 07:46:33;;;;;;;;;;;;;;;48.26;8.88;96198.63;6148927;28;20025;-65
2022/07/20 07:49:35;;;;;;;;;;;;;;;48.07;9.06;96208.53;6149202;28;19926;-65
2022/07/20 07:52:37;;;;;;;;;;;;;;;48.17;9.36;96198.03;6147617;29;20388;-66
2022/07/20 07:55:40;;;;;;;;;;;;;;;48.32;9.44;96211.13;6149063;28;19931;-66
2022/07/20 07:58:44;;;;;;;;;;;;;;;48.79;9.02;96207.50;6148791;28;19930;-65
2022/07/20 08:01:48;;;;;;;;;;;;;;;48.85;8.53;96203.25;6149333;28;19927;-66
2022/07/20 08:04:51;;;;;;;;;;;;;;;48.40;9.09;96196.19;6149429;28;19926;-66
2022/07/20 08:07:55;;;;;;;;;;;;;;;48.56;8.87;96191.44;6147879;29;20300;-65
2022/07/20 08:11:02;;;;;;;;;;;;;;;48.48;8.91;96186.81;6149559;28;20408;-66
2022/07/20 08:14:04;;;;;;;;;;;;;;;49.09;8.23;96179.88;6148780;28;19933;-66
2022/07/20 08:17:07;;;;;;;;;;;;;;;49.34;8.09;96172.00;6148969;28;19926;-65
2022/07/20 08:20:08;;;;;;;;;;;;;;;48.20;8.63;96174.97;6148407;28;19933;-65
2022/07/20 08:23:09;;;;;;;;;;;;;;;44.72;10.97;96174.81;6148709;28;20381;-65
2022/07/20 08:26:13;;;;;;;;;;;;;;;41.53;12.65;96155.88;6148942;28;20020;-65
2022/07/20 08:29:14;;;;;;;;;;;;;;;42.39;12.37;96155.50;6151346;28;19926;-66
2022/07/20 08:32:17;;;;;;;;;;;;;;;44.91;10.90;96148.59;6153581;28;19926;-65
2022/07/20 08:35:18;;;;;;;;;;;;;;;46.62;9.81;96156.53;6153561;28;19985;-66
2022/07/20 08:38:19;;;;;;;;;;;;;;;47.72;8.85;96155.38;6151502;28;20776;-66
2022/07/20 08:41:23;;;;;;;;;;;;;;;48.12;8.88;96155.22;6153499;28;19954;-66
2022/07/20 08:44:25;;;;;;;;;;;;;;;46.35;9.96;96156.09;6152937;28;19922;-65
2022/07/20 08:47:28;;;;;;;;;;;;;;;47.11;9.55;96156.47;6153335;28;19933;-64
2022/07/20 08:50:30;;;;;;;;;;;;;;;47.51;9.12;96172.34;6153226;29;19927;-65
2022/07/20 08:53:34;;;;;;;;;;;;;;;46.93;9.42;96157.88;6152977;28;19926;-66
2022/07/20 08:56:39;;;;;;;;;;;;;;;47.08;9.19;96165.53;6152975;28;20104;-65
2022/07/20 08:59:41;;;;;;;;;;;;;;;47.05;8.17;96163.44;6152884;28;19937;-66
2022/07/20 09:02:50;;;;;;;;;;;;;;;45.78;8.81;96153.34;6153233;28;20412;-66
2022/07/20 09:06:06;;;;;;;;;;;;;;;45.77;9.06;96151.72;6152879;28;19926;-66
2022/07/20 09:09:10;;;;;;;;;;;;;;;45.43;9.21;96148.13;6152979;28;20390;-66
2022/07/20 09:12:15;;;;;;;;;;;;;;;46.20;8.75;96140.06;6167165;28;20400;-66
2022/07/20 09:15:26;;;;;;;;;;;;;;;46.34;8.90;96154.47;6152588;28;20009;-67
2022/07/20 09:18:29;;;;;;;;;;;;;;;46.40;9.22;96152.25;6152727;28;19927;-66
2022/07/20 09:21:31;;;;;;;;;;;;;;;45.67;9.93;96158.56;6152113;28;19933;-65
2022/07/20 09:24:35;;;;;;;;;;;;;;;42.61;11.88;96154.56;6152505;28;19927;-65
2022/07/20 09:27:42;;;;;;;;;;;;;;;39.31;13.95;96143.44;6152288;28;20308;-66
2022/07/20 09:30:49;;;;;;;;;;;;;;;40.64;13.08;96133.44;6152057;28;19993;-66
2022/07/20 09:34:12;;;;;;;;;;;;;;;42.89;12.03;96143.22;6152223;29;19926;-65
2022/07/20 09:37:17;;;;;;;;;;;;;;;43.45;10.94;96160.78;6151924;28;19933;-65
2022/07/20 09:40:20;;;;;;;;;;;;;;;43.50;10.39;96142.03;6150328;28;19927;-66
2022/07/20 09:43:26;;;;;;;;;;;;;;;43.44;10.35;96137.00;6151983;28;20024;-66
2022/07/20 09:46:30;;;;;;;;;;;;;;;43.60;10.34;96135.38;6152201;28;19927;-65
2022/07/20 09:49:34;;;;;;;;;;;;;;;43.06;10.68;96123.84;6152082;28;19926;-65
2022/07/20 09:52:38;;;;;;;;;;;;;;;41.66;11.76;96119.09;6151675;28;20493;-66
2022/07/20 09:55:41;;;;;;;;;;;;;;;38.40;13.80;96115.06;6151652;29;20476;-66
2022/07/20 09:58:47;;;;;;;;;;;;;;;35.61;15.88;96101.25;6151705;28;19926;-66
2022/07/20 10:01:50;;;;;;;;;;;;;;;36.82;15.18;96100.16;6151933;28;20241;-65
2022/07/20 10:04:53;;;;;;;;;;;;;;;38.49;14.33;96106.97;6150970;28;19926;-65
2022/07/20 10:07:54;;;;;;;;;;;;;;;39.37;13.58;96111.94;6151444;28;19922;-66
2022/07/20 10:10:58;;;;;;;;;;;;;;;40.12;13.23;96106.13;6151267;28;19954;-66
2022/07/20 10:14:02;;;;;;;;;;;;;;;40.54;12.76;96101.38;6151486;28;20029;-65
2022/07/20 10:17:03;;;;;;;;;;;;;;;39.68;13.30;96107.50;6151692;28;19930;-65
2022/07/20 10:20:07;;;;;;;;;;;;;;;40.41;13.28;96107.72;6151350;28;19930;-65
2022/07/20 10:23:14;;;;;;;;;;;;;;;40.87;12.99;96105.88;6150932;29;20432;-66
2022/07/20 10:26:25;;;;;;;;;;;;;;;41.07;12.87;96110.91;6151096;28;19933;-65
2022/07/20 10:29:31;;;;;;;;;;;;;;;40.64;12.82;96113.31;6150882;28;19927;-65
2022/07/20 10:32:48;;;;;;;;;;;;;;;39.56;13.33;96096.19;6150636;29;19938;-65
2022/07/20 10:35:52;;;;;;;;;;;;;;;37.11;14.97;96096.66;6150914;28;19926;-66
2022/07/20 10:38:54;;;;;;;;;;;;;;;34.80;16.65;96094.75;6150671;29;19932;-66
2022/07/20 10:42:16;;;;;;;;;;;;;;;35.77;16.19;96088.38;6150621;29;19926;-66
2022/07/20 10:45:20;;;;;;;;;;;;;;;35.64;15.75;96091.69;6150755;29;19949;-65
2022/07/20 10:48:24;;;;;;;;;;;;;;;35.74;15.08;96087.00;6150740;28;19926;-65
2022/07/20 10:51:29;;;;;;;;;;;;;;;35.97;15.12;96079.25;6149449;28;19926;-65
2022/07/20 10:54:30;;;;;;;;;;;;;;;36.01;15.49;96079.50;6150282;29;19933;-65
2022/07/20 10:57:36;;;;;;;;;;;;;;;36.04;15.71;96074.31;6150236;29;20285;-65
2022/07/20 11:00:42;;;;;;;;;;;;;;;36.29;15.93;96083.50;6150455;28;20300;-66
2022/07/20 11:03:48;;;;;;;;;;;;;;;36.39;14.81;96091.66;6150477;28;20025;-65
2022/07/20 11:06:51;;;;;;;;;;;;;;;36.48;15.11;96094.63;6150310;28;19926;-65
2022/07/20 11:09:52;;;;;;;;;;;;;;;36.56;14.85;96094.88;6149940;28;19933;-65
2022/07/20 11:13:03;;;;;;;;;;;;;;;36.68;15.12;96088.22;6342338;27;2196626;-64
2022/07/20 11:16:04;;;;;;;;;;;;;;;36.92;15.48;96088.31;6419542;27;20392;-66
2022/07/20 11:19:08;;;;;;;;;;;;;;;37.48;14.89;96091.41;6419384;27;19927;-65
2022/07/20 11:22:12;;;;;;;;;;;;;;;37.02;15.50;96086.31;6419168;27;19923;-64
2022/07/20 11:25:18;;;;;;;;;;;;;;;36.60;15.57;96087.72;6419166;27;19923;-64
2022/07/20 11:28:23;;;;;;;;;;;;;;;36.23;16.26;96071.75;6419205;27;19923;-65
2022/07/20 11:31:29;;;;;;;;;;;;;;;36.07;16.80;96062.81;6418443;27;20308;-65
2022/07/20 11:34:30;;;;;;;;;;;;;;;36.26;16.30;96070.38;6419007;27;19923;-65
2022/07/20 11:37:33;;;;;;;;;;;;;;;36.06;16.34;96074.03;6417897;27;19947;-64
2022/07/20 11:40:36;;;;;;;;;;;;;;;34.96;17.80;96075.59;6418813;27;19922;-65
2022/07/20 11:43:44;;;;;;;;;;;;;;;34.03;18.79;96062.84;6418470;27;19930;-65
2022/07/20 11:46:45;;;;;;;;;;;;;;;33.61;19.52;96072.00;6417807;27;20064;-65
2022/07/20 11:50:02;;;;;;;;;;;;;;;33.06;19.77;96074.06;6418454;27;20029;-65
2022/07/20 11:53:21;;;;;;;;;;;;;;;32.73;19.71;96067.81;6418323;27;20399;-64
2022/07/20 11:56:25;;;;;;;;;;;;;;;32.63;20.12;96067.72;6418082;27;20518;-65
2022/07/20 11:59:29;;;;;;;;;;;;;;;32.47;20.15;96064.03;6418271;27;19971;-65
2022/07/20 12:02:30;;;;;;;;;;;;;;;32.23;21.23;96062.66;6417768;27;19923;-65
2022/07/20 12:05:34;;;;;;;;;;;;;;;32.12;20.86;96056.28;6418026;27;19923;-65
2022/07/20 12:08:39;;;;;;;;;;;;;;;32.17;20.69;96065.34;6417852;27;19942;-66
2022/07/20 12:12:04;;;;;;;;;;;;;;;32.27;20.34;96064.59;6417458;27;19923;-64
2022/07/20 12:15:05;;;;;;;;;;;;;;;32.13;20.79;96069.66;6403711;27;19934;-65
2022/07/20 12:18:08;;;;;;;;;;;;;;;32.12;20.73;96057.09;6417766;27;20355;-66
2022/07/20 12:21:11;;;;;;;;;;;;;;;32.23;20.44;96057.22;6417348;27;20388;-67
2022/07/20 12:24:12;;;;;;;;;;;;;;;32.25;20.18;96055.06;6401221;27;19976;-66
2022/07/20 12:27:13;;;;;;;;;;;;;;;32.07;20.35;96048.88;6399590;27;20316;-64
2022/07/20 12:30:23;;;;;;;;;;;;;;;32.05;20.85;96056.50;6399907;27;20312;-65
2022/07/20 12:33:26;;;;;;;;;;;;;;;31.32;21.28;96059.34;6400087;27;20025;-64
2022/07/20 12:36:37;;;;;;;;;;;;;;;31.15;21.18;96053.13;6399871;27;20281;-65
2022/07/20 12:39:47;;;;;;;;;;;;;;;31.07;21.22;96050.81;6400154;27;19923;-66
2022/07/20 12:42:50;;;;;;;;;;;;;;;31.42;20.78;96055.16;6400350;27;20315;-66
2022/07/20 12:45:53;;;;;;;;;;;;;;;31.44;21.35;96050.28;6399761;27;19923;-65
2022/07/20 12:48:59;;;;;;;;;;;;;;;31.04;21.31;96054.88;6399375;27;19975;-64
2022/07/20 12:52:04;;;;;;;;;;;;;;;30.84;21.56;96058.09;6380875;27;19923;-66
2022/07/20 12:55:06;;;;;;;;;;;;;;;30.72;21.92;96057.34;6399321;27;19923;-65
2022/07/20 12:58:07;;;;;;;;;;;;;;;30.58;21.84;96058.72;6399205;27;19930;-65
2022/07/20 13:01:15;;;;;;;;;;;;;;;30.49;22.16;96060.19;6399572;27;19927;-65
2022/07/20 13:04:22;;;;;;;;;;;;;;;30.17;22.50;96066.09;6399399;27;19923;-65
2022/07/20 13:07:23;;;;;;;;;;;;;;;29.79;23.23;96056.72;6399150;27;20306;-66
2022/07/20 13:10:24;;;;;;;;;;;;;;;29.48;23.92;96056.03;6398860;27;19923;-66
2022/07/20 13:13:26;;;;;;;;;;;;;;;29.20;24.17;96064.09;6399219;27;19923;-65
2022/07/20 13:16:31;;;;;;;;;;;;;;;28.92;24.81;96053.94;6399081;27;20300;-65
2022/07/20 13:19:32;;;;;;;;;;;;;;;28.60;25.21;96059.69;6398941;27;19923;-66
2022/07/20 13:22:36;;;;;;;;;;;;;;;28.41;24.62;96062.44;6398848;27;20518;-67
2022/07/20 13:25:40;;;;;;;;;;;;;;;28.13;24.28;96054.94;6399215;27;19923;-65
2022/07/20 13:28:46;;;;;;;;;;;;;;;27.82;24.81;96052.47;6398887;27;20331;-65
2022/07/20 13:31:51;;;;;;;;;;;;;;;27.64;24.97;96064.94;6398967;27;19931;-65
2022/07/20 13:34:55;;;;;;;;;;;;;;;27.55;24.83;96069.00;6397543;27;19926;-65
2022/07/20 13:37:58;;;;;;;;;;;;;;;27.55;25.07;96069.00;6398485;27;20388;-65
2022/07/20 13:41:02;;;;;;;;;;;;;;;27.58;25.31;96065.00;6380459;27;19923;-65
2022/07/20 13:44:04;;;;;;;;;;;;;;;27.41;25.52;96067.50;6398402;27;20014;-65
2022/07/20 13:47:09;;;;;;;;;;;;;;;27.34;25.65;96072.13;6398332;27;19923;-66
2022/07/20 13:50:11;;;;;;;;;;;;;;;27.20;25.99;96071.44;6398152;27;19923;-65
2022/07/20 13:53:12;;;;;;;;;;;;;;;27.04;26.13;96076.34;6398060;27;20024;-65
2022/07/20 13:56:18;;;;;;;;;;;;;;;26.96;26.18;96075.81;6397960;27;19923;-66
2022/07/20 13:59:24;;;;;;;;;;;;;;;26.95;26.63;96074.16;6398019;27;19923;-66
2022/07/20 14:02:25;;;;;;;;;;;;;;;26.77;27.00;96073.06;6397832;27;19929;-65
2022/07/20 14:05:29;;;;;;;;;;;;;;;26.28;27.66;96082.75;6397699;27;20025;-64
2022/07/20 14:08:30;;;;;;;;;;;;;;;25.88;30.08;96085.69;6396512;27;19971;-65
2022/07/20 14:11:34;;;;;;;;;;;;;;;25.47;30.07;96077.94;6379322;27;19923;-65
2022/07/20 14:14:35;;;;;;;;;;;;;;;25.12;30.33;96090.84;6397693;27;20009;-65
2022/07/20 14:17:39;;;;;;;;;;;;;;;24.87;30.82;96086.09;6397199;27;20017;-65
2022/07/20 14:20:40;;;;;;;;;;;;;;;24.55;31.31;96085.91;6397433;27;19930;-65
2022/07/20 14:23:44;;;;;;;;;;;;;;;24.31;31.72;96089.97;6397393;27;19923;-65
2022/07/20 14:26:48;;;;;;;;;;;;;;;24.20;31.99;96096.81;6397367;27;19923;-65
2022/07/20 14:29:51;;;;;;;;;;;;;;;24.20;32.20;96096.81;6397421;27;20025;-65
2022/07/20 14:32:59;;;;;;;;;;;;;;;24.20;32.38;96099.50;6397227;27;19923;-65
2022/07/20 14:36:00;;;;;;;;;;;;;;;24.22;32.29;96104.66;6397221;27;19923;-66
2022/07/20 14:39:02;;;;;;;;;;;;;;;24.25;33.43;96100.72;6397383;27;19923;-66
2022/07/20 14:42:05;;;;;;;;;;;;;;;24.29;32.25;96099.28;6397044;27;19923;-66
2022/07/20 14:45:09;;;;;;;;;;;;;;;24.31;32.02;96103.41;6396908;27;19927;-65
2022/07/20 14:48:10;;;;;;;;;;;;;;;24.31;32.39;96099.91;6397098;27;20391;-65
2022/07/20 14:51:11;;;;;;;;;;;;;;;24.28;32.63;96105.69;6397203;27;20018;-65
2022/07/20 14:54:12;;;;;;;;;;;;;;;24.15;32.74;96111.88;6397001;27;19923;-66
2022/07/20 14:57:16;;;;;;;;;;;;;;;23.96;33.32;96113.47;6396948;27;19923;-66
2022/07/20 15:00:22;;;;;;;;;;;;;;;23.81;33.55;96116.31;6396849;27;19923;-67
2022/07/20 15:03:28;;;;;;;;;;;;;;;23.74;34.24;96121.66;6397121;27;19923;-66
2022/07/20 15:06:29;;;;;;;;;;;;;;;23.58;34.66;96116.59;6396939;27;19923;-66
2022/07/20 15:09:31;;;;;;;;;;;;;;;23.54;34.57;96116.16;6396860;27;19923;-66
2022/07/20 15:12:35;;;;;;;;;;;;;;;23.61;34.86;96110.84;6396309;27;19923;-66
2022/07/20 15:15:36;;;;;;;;;;;;;;;23.70;34.73;96120.41;6396881;27;19923;-65
2022/07/20 15:18:37;;;;;;;;;;;;;;;23.88;35.27;96113.66;6396950;27;20414;-65
2022/07/20 15:21:45;;;;;;;;;;;;;;;23.77;35.17;96116.91;6397005;27;19930;-65
2022/07/20 15:24:50;;;;;;;;;;;;;;;23.57;35.45;96114.94;6396774;27;20443;-65
2022/07/20 15:27:54;;;;;;;;;;;;;;;23.47;35.32;96126.06;6396556;27;19936;-66
2022/07/20 15:30:55;;;;;;;;;;;;;;;23.41;35.54;96115.25;6396607;27;19923;-65
2022/07/20 15:33:59;;;;;;;;;;;;;;;23.37;35.67;96124.75;6396547;27;20388;-65
2022/07/20 15:37:01;;;;;;;;;;;;;;;23.31;35.43;96119.13;6396277;27;19919;-65
2022/07/20 15:40:04;;;;;;;;;;;;;;;23.09;35.60;96123.75;6396422;27;20015;-66
2022/07/20 15:43:11;;;;;;;;;;;;;;;22.93;35.84;96118.66;6396049;27;20428;-66
2022/07/20 15:46:15;;;;;;;;;;;;;;;22.84;35.76;96123.34;6396385;27;19927;-66
2022/07/20 15:49:18;;;;;;;;;;;;;;;22.62;35.81;96116.34;6396550;27;19919;-65
2022/07/20 15:52:22;;;;;;;;;;;;;;;22.47;36.10;96128.97;6396122;27;19958;-66
2022/07/20 15:55:23;;;;;;;;;;;;;;;22.16;36.53;96124.72;6395976;27;19930;-66
2022/07/20 15:58:24;;;;;;;;;;;;;;;21.89;36.99;96124.44;6398615;27;20307;-65
2022/07/20 16:01:26;;;;;;;;;;;;;;;21.75;37.29;96119.94;6400893;27;19923;-66